createdAt,value
2023-04-21T00:00:34.141Z,98730.28
2023-04-21T00:03:22.762Z,98730.94
2023-04-21T00:06:09.789Z,98736.25
2023-04-21T00:08:55.908Z,98703.66
2023-04-21T00:11:42.431Z,98715.50
2023-04-21T00:14:28.750Z,98740.75
2023-04-21T00:17:14.922Z,98737.09
2023-04-21T00:20:01.510Z,98735.06
2023-04-21T00:22:48.292Z,98732.53
2023-04-21T00:25:34.544Z,98730.53
2023-04-21T00:28:21.018Z,98701.50
2023-04-21T00:31:07.247Z,98715.22
2023-04-21T00:33:53.958Z,98731.88
2023-04-21T00:36:41.877Z,98702.44
2023-04-21T00:39:28.329Z,98710.88
2023-04-21T00:42:17.784Z,98705.53
2023-04-21T00:45:05.076Z,98729.78
2023-04-21T00:47:52.329Z,98721.13
2023-04-21T00:50:38.993Z,98706.25
2023-04-21T00:53:25.996Z,98719.41
2023-04-21T00:56:12.912Z,98709.13
2023-04-21T00:59:00.422Z,98702.69
2023-04-21T01:01:46.968Z,98717.31
2023-04-21T01:04:38.914Z,98700.03
2023-04-21T01:07:25.761Z,98721.34
2023-04-21T01:10:12.480Z,98711.41
2023-04-21T01:12:59.063Z,98711.00
2023-04-21T01:15:45.265Z,98689.81
2023-04-21T01:18:31.596Z,98713.69
2023-04-21T01:21:19.045Z,98664.84
2023-04-21T01:24:06.121Z,98708.91
2023-04-21T01:26:52.623Z,98700.97
2023-04-21T01:29:42.191Z,98706.91
2023-04-21T01:32:30.283Z,98705.53
2023-04-21T01:35:16.792Z,98702.06
2023-04-21T01:38:09.680Z,98706.19
2023-04-21T01:40:56.280Z,98677.78
2023-04-21T01:43:42.663Z,98692.66
2023-04-21T01:46:29.431Z,98698.88
2023-04-21T01:49:16.179Z,98679.19
2023-04-21T01:52:02.666Z,98695.97
2023-04-21T01:54:49.482Z,98720.28
2023-04-21T01:57:36.209Z,98706.09
2023-04-21T02:00:22.574Z,98706.03
2023-04-21T02:03:08.776Z,98704.44
2023-04-21T02:05:55.254Z,98708.63
2023-04-21T02:08:41.362Z,98705.81
2023-04-21T02:11:27.574Z,98716.09
2023-04-21T02:14:14.045Z,98690.00
2023-04-21T02:17:00.329Z,98717.34
2023-04-21T02:19:47.911Z,98696.25
2023-04-21T02:22:34.076Z,98687.41
2023-04-21T02:25:23.232Z,98711.44
2023-04-21T02:28:09.447Z,98716.63
2023-04-21T02:30:55.774Z,98712.19
2023-04-21T02:33:42.243Z,98709.94
2023-04-21T02:36:31.277Z,98706.72
2023-04-21T02:39:17.821Z,98708.19
2023-04-21T02:42:04.739Z,98709.75
2023-04-21T02:44:51.015Z,98660.69
2023-04-21T02:47:37.299Z,98698.25
2023-04-21T02:50:23.796Z,98720.66
2023-04-21T02:53:10.205Z,98712.22
2023-04-21T02:55:56.406Z,98719.50
2023-04-21T02:58:42.973Z,98708.34
2023-04-21T03:01:29.372Z,98663.38
2023-04-21T03:04:15.936Z,98711.50
2023-04-21T03:07:02.520Z,98713.66
2023-04-21T03:09:48.674Z,98714.88
2023-04-21T03:12:34.983Z,98687.06
2023-04-21T03:15:22.590Z,98718.91
2023-04-21T03:18:09.119Z,98719.81
2023-04-21T03:21:01.961Z,98670.06
2023-04-21T03:23:48.148Z,98649.00
2023-04-21T03:26:34.403Z,98693.41
2023-04-21T03:29:20.927Z,98655.00
2023-04-21T03:32:07.313Z,98662.16
2023-04-21T03:34:53.674Z,98692.50
2023-04-21T03:37:39.819Z,98698.53
2023-04-21T03:40:26.453Z,98696.44
2023-04-21T03:43:12.790Z,98690.72
2023-04-21T03:45:59.503Z,98696.81
2023-04-21T03:48:46.844Z,98703.63
2023-04-21T03:51:33.068Z,98660.47
2023-04-21T03:54:19.328Z,98698.38
2023-04-21T03:57:05.803Z,98680.09
2023-04-21T03:59:52.089Z,98639.03
2023-04-21T04:02:39.001Z,98694.13
2023-04-21T04:05:25.675Z,98683.63
2023-04-21T04:08:12.195Z,98695.13
2023-04-21T04:10:58.588Z,98672.63
2023-04-21T04:13:44.926Z,98695.94
2023-04-21T04:16:31.193Z,98682.16
2023-04-21T04:19:17.933Z,98654.25
2023-04-21T04:22:04.605Z,98700.09
2023-04-21T04:24:51.252Z,98695.94
2023-04-21T04:27:37.615Z,98687.69
2023-04-21T04:30:27.775Z,98661.03
2023-04-21T04:33:14.161Z,98703.97
2023-04-21T04:36:00.684Z,98695.13
2023-04-21T04:38:47.052Z,98699.03
2023-04-21T04:41:33.914Z,98702.13
2023-04-21T04:44:20.409Z,98702.22
2023-04-21T04:47:07.445Z,98712.47
2023-04-21T04:49:53.783Z,98674.25
2023-04-21T04:52:40.653Z,98706.19
2023-04-21T04:55:27.105Z,98670.97
2023-04-21T04:58:13.368Z,98717.47
2023-04-21T05:00:59.576Z,98701.72
2023-04-21T05:03:46.087Z,98726.28
2023-04-21T05:06:32.659Z,98696.97
2023-04-21T05:09:18.888Z,98670.47
2023-04-21T05:12:05.968Z,98725.56
2023-04-21T05:14:52.335Z,98728.75
2023-04-21T05:17:38.581Z,98730.69
2023-04-21T05:20:25.087Z,98729.31
2023-04-21T05:23:11.440Z,98742.69
2023-04-21T05:25:57.552Z,98751.38
2023-04-21T05:28:44.081Z,98734.22
2023-04-21T05:31:30.310Z,98748.16
2023-04-21T05:34:16.953Z,98746.56
2023-04-21T05:37:04.166Z,98749.41
2023-04-21T05:39:51.401Z,98757.03
2023-04-21T05:42:37.948Z,98739.19
2023-04-21T05:45:24.179Z,98751.75
2023-04-21T05:48:12.273Z,98730.34
2023-04-21T05:51:09.629Z,98741.97
2023-04-21T05:53:56.065Z,98732.78
2023-04-21T05:56:42.222Z,98728.22
2023-04-21T05:59:28.764Z,98756.50
2023-04-21T06:02:15.415Z,98745.88
2023-04-21T06:05:02.177Z,98733.22
2023-04-21T06:07:49.037Z,98728.66
2023-04-21T06:10:35.326Z,98758.91
2023-04-21T06:13:21.660Z,98719.94
2023-04-21T06:16:08.006Z,98742.53
2023-04-21T06:18:54.697Z,98696.69
2023-04-21T06:21:40.968Z,98741.59
2023-04-21T06:24:32.288Z,98752.25
2023-04-21T06:27:19.099Z,98692.66
2023-04-21T06:30:06.135Z,98708.69
2023-04-21T06:32:52.805Z,98692.97
2023-04-21T06:35:39.287Z,98725.31
2023-04-21T06:38:25.756Z,98719.16
2023-04-21T06:41:12.323Z,98720.16
2023-04-21T06:43:59.650Z,98687.63
2023-04-21T06:46:47.166Z,98749.81
2023-04-21T06:49:34.300Z,98738.97
2023-04-21T06:52:21.059Z,98718.47
2023-04-21T06:55:07.830Z,98728.91
2023-04-21T06:57:54.405Z,98734.25
2023-04-21T07:00:40.791Z,98729.47
2023-04-21T07:03:27.370Z,98719.38
2023-04-21T07:06:13.758Z,98714.16
2023-04-21T07:09:00.356Z,98715.84
2023-04-21T07:11:46.848Z,98712.47
2023-04-21T07:14:33.151Z,98675.47
2023-04-21T07:17:19.279Z,98711.06
2023-04-21T07:20:06.654Z,98711.31
2023-04-21T07:22:53.206Z,98717.53
2023-04-21T07:25:39.700Z,98704.69
2023-04-21T07:28:26.672Z,98714.97
2023-04-21T07:31:13.017Z,98715.75
2023-04-21T07:33:59.353Z,98666.59
2023-04-21T07:36:45.852Z,98671.75
2023-04-21T07:39:31.935Z,98703.47
2023-04-21T07:42:18.189Z,98676.63
2023-04-21T07:45:05.066Z,98716.13
2023-04-21T07:47:51.610Z,98671.19
2023-04-21T07:50:38.149Z,98689.97
2023-04-21T07:53:24.525Z,98661.53
2023-04-21T07:56:12.938Z,98688.19
2023-04-21T07:58:59.455Z,98698.75
2023-04-21T08:01:45.704Z,98695.50
2023-04-21T08:04:32.179Z,98695.50
2023-04-21T08:07:18.564Z,98698.16
2023-04-21T08:10:06.253Z,98704.31
2023-04-21T08:12:52.562Z,98642.50
2023-04-21T08:15:39.218Z,98633.09
2023-04-21T08:18:25.665Z,98639.22
2023-04-21T08:21:12.120Z,98678.91
2023-04-21T08:23:58.319Z,98690.09
2023-04-21T08:26:45.059Z,98678.09
2023-04-21T08:29:31.727Z,98678.16
2023-04-21T08:32:23.479Z,98655.84
2023-04-21T08:35:10.280Z,98661.00
2023-04-21T08:37:56.355Z,98618.00
2023-04-21T08:40:42.683Z,98674.78
2023-04-21T08:43:29.363Z,98677.34
2023-04-21T08:46:16.261Z,98671.28
2023-04-21T08:49:03.733Z,98653.22
2023-04-21T08:51:50.213Z,98666.94
2023-04-21T08:54:36.516Z,98656.50
2023-04-21T08:57:22.681Z,98641.09
2023-04-21T09:00:09.609Z,98637.66
2023-04-21T09:03:01.215Z,98637.53
2023-04-21T09:06:01.731Z,98664.94
2023-04-21T09:08:57.764Z,98651.03
2023-04-21T09:11:44.475Z,98599.44
2023-04-21T09:14:35.244Z,98649.16
2023-04-21T09:17:36.874Z,98616.50
2023-04-21T09:20:23.721Z,98650.84
2023-04-21T09:23:11.427Z,98654.19
2023-04-21T09:25:57.690Z,98650.69
2023-04-21T09:28:45.461Z,98624.78
2023-04-21T09:31:35.796Z,98645.34
2023-04-21T09:34:27.230Z,98643.56
2023-04-21T09:37:16.523Z,98612.72
2023-04-21T09:40:05.980Z,98633.25
2023-04-21T09:42:52.698Z,98632.28
2023-04-21T09:45:40.512Z,98640.69
2023-04-21T09:48:32.087Z,98644.91
2023-04-21T09:51:30.688Z,98606.38
2023-04-21T09:54:31.414Z,98635.34
2023-04-21T09:57:26.042Z,98630.88
2023-04-21T10:00:13.608Z,98619.47
2023-04-21T10:03:04.517Z,98620.38
2023-04-21T10:05:51.414Z,98610.00
2023-04-21T10:08:39.683Z,98577.44
2023-04-21T10:11:26.284Z,98588.31
2023-04-21T10:14:13.039Z,98587.50
2023-04-21T10:17:07.902Z,98611.13
2023-04-21T10:19:58.580Z,98593.06
2023-04-21T10:22:45.183Z,98570.72
2023-04-21T10:25:32.505Z,98605.03
2023-04-21T10:28:18.928Z,98603.88
2023-04-21T10:31:21.766Z,98608.94
2023-04-21T10:34:08.270Z,98596.56
2023-04-21T10:36:54.452Z,98594.47
2023-04-21T10:39:48.212Z,98601.31
2023-04-21T10:42:36.952Z,98591.19
2023-04-21T10:45:26.709Z,98587.63
2023-04-21T10:48:13.988Z,98565.06
2023-04-21T10:51:00.165Z,98584.88
2023-04-21T10:53:46.776Z,98575.09
2023-04-21T10:56:33.177Z,98575.34
2023-04-21T10:59:20.182Z,98556.91
2023-04-21T11:02:17.809Z,98550.69
2023-04-21T11:05:06.172Z,98556.81
2023-04-21T11:07:52.365Z,98560.53
2023-04-21T11:10:51.788Z,98491.94
2023-04-21T11:13:40.970Z,98551.41
2023-04-21T11:16:27.647Z,98548.50
2023-04-21T11:19:15.739Z,98547.19
2023-04-21T11:22:03.857Z,98550.44
2023-04-21T11:24:56.918Z,98555.09
2023-04-21T11:27:52.647Z,98525.63
2023-04-21T11:30:38.964Z,98504.00
2023-04-21T11:33:29.092Z,98555.03
2023-04-21T11:36:15.304Z,98526.00
2023-04-21T11:39:10.157Z,98539.66
2023-04-21T11:41:56.680Z,98523.84
2023-04-21T11:44:43.320Z,98546.06
2023-04-21T11:47:29.851Z,98547.06
2023-04-21T11:50:32.393Z,98546.78
2023-04-21T11:53:19.348Z,98539.56
2023-04-21T11:56:06.523Z,98511.38
2023-04-21T11:58:52.955Z,98509.88
2023-04-21T12:01:53.784Z,98499.78
2023-04-21T12:04:40.549Z,98513.34
2023-04-21T12:07:27.312Z,98528.56
2023-04-21T12:10:19.218Z,98490.00
2023-04-21T12:13:05.693Z,98503.78
2023-04-21T12:15:51.901Z,98501.19
2023-04-21T12:18:38.304Z,98489.88
2023-04-21T12:21:30.833Z,98521.47
2023-04-21T12:24:17.063Z,98490.72
2023-04-21T12:27:03.542Z,98508.44
2023-04-21T12:29:49.860Z,98492.59
2023-04-21T12:32:35.927Z,98474.63
2023-04-21T12:35:22.910Z,98475.50
2023-04-21T12:38:09.424Z,98476.31
2023-04-21T12:40:55.636Z,98488.09
2023-04-21T12:43:41.807Z,98472.69
2023-04-21T12:46:28.586Z,98477.16
2023-04-21T12:49:15.703Z,98486.34
2023-04-21T12:52:05.306Z,98484.13
2023-04-21T12:54:51.599Z,98482.41
2023-04-21T12:57:38.004Z,98456.78
2023-04-21T13:00:24.564Z,98436.13
2023-04-21T13:03:11.286Z,98466.81
2023-04-21T13:05:58.061Z,98467.91
2023-04-21T13:08:44.191Z,98464.94
2023-04-21T13:11:31.051Z,98469.69
2023-04-21T13:14:18.251Z,98469.03
2023-04-21T13:17:05.373Z,98465.19
2023-04-21T13:19:51.811Z,98414.13
2023-04-21T13:22:38.191Z,98449.31
2023-04-21T13:25:24.591Z,98462.00
2023-04-21T13:28:11.339Z,98438.03
2023-04-21T13:30:58.214Z,98453.13
2023-04-21T13:33:44.324Z,98439.75
2023-04-21T13:36:32.483Z,98414.25
2023-04-21T13:39:18.972Z,98412.44
2023-04-21T13:42:06.257Z,98419.09
2023-04-21T13:44:52.746Z,98436.97
2023-04-21T13:47:39.359Z,98394.53
2023-04-21T13:50:25.733Z,98428.22
2023-04-21T13:53:13.955Z,98402.91
2023-04-21T13:56:00.679Z,98414.47
2023-04-21T13:58:46.792Z,98404.09
2023-04-21T14:01:33.091Z,98395.13
2023-04-21T14:04:21.276Z,98419.31
2023-04-21T14:07:08.112Z,98406.66
2023-04-21T14:09:54.885Z,98384.66
2023-04-21T14:12:41.416Z,98384.09
2023-04-21T14:15:27.762Z,98369.75
2023-04-21T14:18:14.383Z,98370.75
2023-04-21T14:21:00.862Z,98402.44
2023-04-21T14:23:47.320Z,98372.44
2023-04-21T14:26:33.881Z,98361.38
2023-04-21T14:29:20.440Z,98377.31
2023-04-21T14:32:06.913Z,98366.25
2023-04-21T14:34:53.745Z,98328.09
2023-04-21T14:37:41.252Z,98355.06
2023-04-21T14:40:27.725Z,98316.22
2023-04-21T14:43:14.030Z,98337.91
2023-04-21T14:46:00.496Z,98333.19
2023-04-21T14:48:47.147Z,98330.56
2023-04-21T14:51:33.964Z,98320.19
2023-04-21T14:54:20.850Z,98323.16
2023-04-21T14:57:19.500Z,98325.81
2023-04-21T15:00:07.666Z,98317.75
2023-04-21T15:02:54.235Z,98341.28
2023-04-21T15:05:41.098Z,98345.31
2023-04-21T15:08:27.746Z,98325.91
2023-04-21T15:11:14.277Z,98333.56
2023-04-21T15:14:00.754Z,98337.97
2023-04-21T15:16:47.147Z,98297.16
2023-04-21T15:19:34.031Z,98323.25
2023-04-21T15:22:20.869Z,98311.34
2023-04-21T15:25:08.015Z,98295.03
2023-04-21T15:27:54.686Z,98296.69
2023-04-21T15:30:41.113Z,98307.38
2023-04-21T15:33:27.665Z,98285.16
2023-04-21T15:36:14.249Z,98302.41
2023-04-21T15:39:00.848Z,98298.75
2023-04-21T15:41:47.349Z,98295.88
2023-04-21T15:44:34.083Z,98320.44
2023-04-21T15:47:21.086Z,98319.66
2023-04-21T15:50:07.966Z,98305.31
2023-04-21T15:52:54.136Z,98289.66
2023-04-21T15:55:40.706Z,98287.00
2023-04-21T15:58:27.421Z,98306.69
2023-04-21T16:01:14.164Z,98295.69
2023-04-21T16:04:00.868Z,98313.88
2023-04-21T16:06:47.436Z,98307.81
2023-04-21T16:09:33.616Z,98291.41
2023-04-21T16:12:20.041Z,98300.13
2023-04-21T16:15:22.488Z,98298.31
2023-04-21T16:18:09.783Z,98302.63
2023-04-21T16:20:56.368Z,98301.47
2023-04-21T16:23:43.224Z,98269.56
2023-04-21T16:26:33.052Z,98276.50
2023-04-21T16:29:19.920Z,98252.13
2023-04-21T16:32:06.887Z,98229.94
2023-04-21T16:34:53.532Z,98271.28
2023-04-21T16:37:42.516Z,98275.72
2023-04-21T16:40:28.822Z,98251.78
2023-04-21T16:43:15.635Z,98288.81
2023-04-21T16:46:02.153Z,98256.19
2023-04-21T16:48:48.752Z,98264.72
2023-04-21T16:51:35.224Z,98274.94
2023-04-21T16:54:21.879Z,98270.50
2023-04-21T16:57:08.539Z,98278.44
2023-04-21T16:59:55.120Z,98276.97
2023-04-21T17:02:41.671Z,98239.09
2023-04-21T17:05:27.952Z,98237.97
2023-04-21T17:08:14.235Z,98223.03
2023-04-21T17:11:00.651Z,98264.22
2023-04-21T17:13:47.033Z,98267.53
2023-04-21T17:16:33.810Z,98261.47
2023-04-21T17:19:20.080Z,98270.63
2023-04-21T17:22:06.818Z,98288.06
2023-04-21T17:24:54.054Z,98272.50
2023-04-21T17:27:40.911Z,98280.72
2023-04-21T17:30:27.371Z,98294.63
2023-04-21T17:33:17.310Z,98296.88
2023-04-21T17:36:04.416Z,98338.75
2023-04-21T17:38:51.019Z,98340.34
2023-04-21T17:41:37.445Z,98327.09
2023-04-21T17:44:26.845Z,98314.00
2023-04-21T17:47:13.563Z,98348.41
2023-04-21T17:49:59.844Z,98268.91
2023-04-21T17:52:46.601Z,98296.19
2023-04-21T17:55:32.894Z,98288.84
2023-04-21T17:58:19.406Z,98306.84
2023-04-21T18:01:07.476Z,98265.84
2023-04-21T18:03:57.734Z,98285.03
2023-04-21T18:06:47.318Z,98319.34
2023-04-21T18:09:33.596Z,98279.81
2023-04-21T18:12:20.056Z,98329.44
2023-04-21T18:15:07.308Z,98355.47
2023-04-21T18:17:56.116Z,98344.66
2023-04-21T18:20:42.550Z,98362.69
2023-04-21T18:23:28.955Z,98344.03
2023-04-21T18:26:15.617Z,98330.41
2023-04-21T18:29:03.092Z,98359.81
2023-04-21T18:31:49.954Z,98373.72
2023-04-21T18:34:37.310Z,98344.66
2023-04-21T18:37:25.033Z,98318.34
2023-04-21T18:40:12.043Z,98362.88
2023-04-21T18:42:58.653Z,98357.13
2023-04-21T18:45:45.339Z,98335.00
2023-04-21T18:48:31.924Z,98364.00
2023-04-21T18:51:18.355Z,98386.63
2023-04-21T18:54:06.382Z,98396.94
2023-04-21T18:56:52.988Z,98380.13
2023-04-21T18:59:39.963Z,98375.06
2023-04-21T19:02:27.409Z,98378.56
2023-04-21T19:05:14.544Z,98400.09
2023-04-21T19:08:01.169Z,98406.19
2023-04-21T19:10:47.821Z,98383.94
2023-04-21T19:13:34.516Z,98407.91
2023-04-21T19:16:20.947Z,98419.88
2023-04-21T19:19:07.524Z,98386.41
2023-04-21T19:21:54.094Z,98377.03
2023-04-21T19:24:40.655Z,98379.75
2023-04-21T19:27:27.284Z,98420.03
2023-04-21T19:30:13.797Z,98373.72
2023-04-21T19:33:00.623Z,98424.41
2023-04-21T19:35:47.129Z,98390.13
2023-04-21T19:38:33.729Z,98421.06
2023-04-21T19:41:19.931Z,98405.66
2023-04-21T19:44:06.548Z,98415.97
2023-04-21T19:46:54.464Z,98406.56
2023-04-21T19:49:40.993Z,98369.72
2023-04-21T19:52:27.281Z,98418.59
2023-04-21T19:55:14.819Z,98440.78
2023-04-21T19:58:01.470Z,98419.34
2023-04-21T20:00:47.967Z,98422.72
2023-04-21T20:03:34.599Z,98431.19
2023-04-21T20:06:21.020Z,98417.47
2023-04-21T20:09:07.185Z,98444.09
2023-04-21T20:11:56.117Z,98444.16
2023-04-21T20:14:42.634Z,98413.31
2023-04-21T20:17:31.415Z,98445.84
2023-04-21T20:20:19.394Z,98430.50
2023-04-21T20:23:05.963Z,98452.59
2023-04-21T20:25:52.696Z,98422.66
2023-04-21T20:28:39.332Z,98461.16
2023-04-21T20:31:25.735Z,98433.00
2023-04-21T20:34:12.367Z,98444.94
2023-04-21T20:36:59.459Z,98421.03
2023-04-21T20:39:46.860Z,98457.00
2023-04-21T20:42:35.144Z,98453.59
2023-04-21T20:45:22.898Z,98441.63
2023-04-21T20:48:09.437Z,98446.72
2023-04-21T20:50:56.304Z,98415.06
2023-04-21T20:53:43.085Z,98460.44
2023-04-21T20:56:29.697Z,98460.47
2023-04-21T20:59:16.407Z,98463.00
2023-04-21T21:02:03.252Z,98461.44
2023-04-21T21:04:49.721Z,98470.03
2023-04-21T21:07:36.211Z,98428.00
2023-04-21T21:10:22.840Z,98440.09
2023-04-21T21:13:09.390Z,98475.28
2023-04-21T21:15:55.902Z,98472.69
2023-04-21T21:18:43.968Z,98437.50
2023-04-21T21:21:30.792Z,98431.56
2023-04-21T21:24:17.044Z,98465.81
2023-04-21T21:27:03.526Z,98464.09
2023-04-21T21:29:49.837Z,98477.75
2023-04-21T21:32:36.266Z,98482.97
2023-04-21T21:35:23.019Z,98475.34
2023-04-21T21:38:09.447Z,98447.00
2023-04-21T21:40:56.150Z,98471.88
2023-04-21T21:43:42.380Z,98436.75
2023-04-21T21:46:29.513Z,98434.22
2023-04-21T21:49:15.875Z,98452.22
2023-04-21T21:52:02.576Z,98445.41
2023-04-21T21:54:49.027Z,98429.97
2023-04-21T21:57:36.264Z,98441.13
2023-04-21T22:00:22.999Z,98449.66
2023-04-21T22:03:09.581Z,98432.47
2023-04-21T22:05:56.082Z,98440.97
2023-04-21T22:08:42.347Z,98415.13
2023-04-21T22:11:28.555Z,98435.78
2023-04-21T22:14:22.877Z,98430.75
2023-04-21T22:17:10.692Z,98423.94
2023-04-21T22:19:57.871Z,98438.63
2023-04-21T22:22:44.577Z,98440.38
2023-04-21T22:25:30.850Z,98433.53
2023-04-21T22:28:17.140Z,98420.63
2023-04-21T22:31:05.453Z,98442.22
2023-04-21T22:33:52.273Z,98381.22
2023-04-21T22:36:38.946Z,98446.50
2023-04-21T22:39:25.820Z,98434.50
2023-04-21T22:42:12.439Z,98444.84
2023-04-21T22:45:01.506Z,98417.47
2023-04-21T22:47:49.526Z,98408.84
2023-04-21T22:50:35.607Z,98432.03
2023-04-21T22:53:22.121Z,98417.47
2023-04-21T22:56:08.568Z,98402.97
2023-04-21T22:58:55.071Z,98384.94
2023-04-21T23:01:41.229Z,98382.38
2023-04-21T23:04:27.558Z,98429.56
2023-04-21T23:07:14.400Z,98407.28
2023-04-21T23:10:00.719Z,98415.84
2023-04-21T23:12:47.171Z,98405.56
2023-04-21T23:15:33.408Z,98424.47
2023-04-21T23:18:19.721Z,98435.63
2023-04-21T23:21:06.210Z,98408.97
2023-04-21T23:23:52.484Z,98431.31
2023-04-21T23:26:38.926Z,98407.25
2023-04-21T23:29:27.189Z,98441.53
2023-04-21T23:32:13.608Z,98437.31
2023-04-21T23:35:00.284Z,98403.00
2023-04-21T23:37:46.678Z,98439.09
2023-04-21T23:40:35.016Z,98403.91
2023-04-21T23:43:21.440Z,98383.34
2023-04-21T23:46:08.086Z,98438.28
2023-04-21T23:48:54.598Z,98417.66
2023-04-21T23:51:41.756Z,98396.16
2023-04-21T23:54:28.176Z,98429.66
2023-04-21T23:57:14.401Z,98432.28
